world map with VCE marked

VCE - Airport

This information may not be accurate or current and is not valid for navigation or flight planning. No warranty of fitness for any purpose is made or implied.

flag of Venetoflag of Italy

Donate via PayPal

Additional information is available on the NEW Great Circle Mapper

Location
City:  Venice, Veneto, Italy
Near (Alt.):Venezia
Name:Marco Polo Airport (Tessera)
ICAO / IATA:LIPZ / VCE

Details
Type:Airport (Aerodrome, Airfield)
Use:Public/Civil
Latitude:45°30'19"N (45.505278)
Longitude:12°21'07"E (12.351944)
Datum:WGS 1984
Elevation:7 ft (2 m)
Runways:2
Longest:10827 × 148 ft (3300 × 45 m)

Time
Timezone:UTC+1 (DST+4)
Local Time:

Weather
METAR:LIPZ  240820Z 06010KT CAVOK 28/20 Q1015 NOSIG
TAF:LIPZ  240500Z 2406/2512 VRB06KT 9999 SCT040 TEMPO 2421/2503 4000 TSRA

Related Locations
Nearby:
Farthest:CHT: 11990 mi / 19296 km
Waitangi [Tuuta], CIT, NZ

Find:

   beyond  
but within

Other Information
Maps:
Sources:

  


 


Great Circle Mapper   Great Circle Mapper
Great Circle Mapper FAQ   Great Circle Mapper FAQ
  Karl's Home Page
KLSē   KLSē Home
   GC on Facebook
Airlines of the World   Airlines of the World
Donate via PayPal


Copyright © 2004-2017, Karl L. Swartz. All rights reserved.
All trademarks mentioned herein belong to their respective owners.

Please see credits for attribution and copyright information.

Karl Swartz <karl@kls2.com>
  Powered by FreeBSD
Valid HTML 4.01!
Labeled with ICRA
hCard Microformat
Geo Microformat